createdAt,value
2023-04-22T00:01:04.660Z,15.97
2023-04-22T00:03:31.414Z,17.09
2023-04-22T00:05:58.318Z,17.43
2023-04-22T00:08:24.932Z,17.86
2023-04-22T00:10:51.504Z,16.97
2023-04-22T00:13:18.073Z,17.16
2023-04-22T00:15:44.661Z,16.62
2023-04-22T00:18:11.151Z,17.12
2023-04-22T00:20:37.627Z,17.34
2023-04-22T00:23:04.114Z,17.83
2023-04-22T00:25:30.640Z,17.86
2023-04-22T00:27:57.250Z,17.93
2023-04-22T00:30:23.769Z,17.26
2023-04-22T00:32:50.335Z,17.38
2023-04-22T00:35:17.042Z,16.83
2023-04-22T00:37:43.575Z,16.72
2023-04-22T00:40:10.615Z,16.81
2023-04-22T00:42:37.643Z,15.97
2023-04-22T00:45:05.133Z,16.05
2023-04-22T00:47:32.180Z,15.90
2023-04-22T00:50:00.020Z,16.58
2023-04-22T00:52:26.510Z,16.48
2023-04-22T00:54:53.072Z,15.64
2023-04-22T00:57:20.359Z,15.84
2023-04-22T00:59:47.591Z,15.38
2023-04-22T01:02:14.874Z,15.72
2023-04-22T01:04:42.009Z,15.40
2023-04-22T01:07:08.486Z,16.23
2023-04-22T01:09:34.997Z,15.88
2023-04-22T01:12:02.036Z,16.57
2023-04-22T01:14:28.610Z,16.06
2023-04-22T01:16:55.943Z,16.19
2023-04-22T01:19:22.884Z,16.26
2023-04-22T01:21:51.807Z,15.44
2023-04-22T01:24:18.802Z,16.05
2023-04-22T01:26:46.064Z,15.77
2023-04-22T01:29:14.371Z,15.46
2023-04-22T01:31:41.417Z,16.05
2023-04-22T01:34:07.961Z,16.17
2023-04-22T01:36:34.506Z,16.55
2023-04-22T01:39:01.419Z,16.20
2023-04-22T01:41:27.927Z,15.99
2023-04-22T01:43:57.920Z,16.14
2023-04-22T01:46:24.662Z,16.50
2023-04-22T01:48:51.226Z,16.64
2023-04-22T01:51:18.969Z,16.56
2023-04-22T01:53:45.552Z,17.12
2023-04-22T01:56:12.038Z,16.74
2023-04-22T01:58:39.748Z,16.56
2023-04-22T02:01:09.050Z,16.77
2023-04-22T02:03:36.422Z,16.96
2023-04-22T02:06:03.120Z,16.71
2023-04-22T02:08:29.624Z,16.67
2023-04-22T02:10:56.322Z,16.59
2023-04-22T02:13:22.793Z,17.39
2023-04-22T02:15:49.322Z,17.71
2023-04-22T02:18:15.941Z,18.11
2023-04-22T02:20:42.443Z,17.67
2023-04-22T02:23:09.002Z,18.03
2023-04-22T02:25:36.279Z,18.12
2023-04-22T02:28:02.810Z,17.91
2023-04-22T02:30:29.341Z,18.78
2023-04-22T02:32:55.875Z,19.15
2023-04-22T02:35:22.427Z,20.59
2023-04-22T02:37:48.944Z,20.94
2023-04-22T02:40:15.434Z,20.56
2023-04-22T02:42:41.941Z,20.00
2023-04-22T02:45:08.718Z,19.04
2023-04-22T02:47:37.383Z,19.75
2023-04-22T02:50:04.148Z,19.67
2023-04-22T02:52:30.657Z,21.02
2023-04-22T02:54:57.132Z,21.58
2023-04-22T02:57:23.616Z,21.09
2023-04-22T02:59:51.745Z,22.47
2023-04-22T03:02:18.350Z,23.79
2023-04-22T03:04:45.175Z,22.98
2023-04-22T03:07:11.684Z,21.09
2023-04-22T03:09:38.331Z,21.51
2023-04-22T03:12:04.983Z,21.50
2023-04-22T03:14:31.499Z,20.98
2023-04-22T03:16:58.153Z,20.88
2023-04-22T03:19:24.803Z,20.68
2023-04-22T03:21:51.288Z,21.14
2023-04-22T03:24:17.765Z,20.61
2023-04-22T03:26:44.513Z,21.06
2023-04-22T03:29:10.979Z,21.04
2023-04-22T03:31:37.469Z,21.52
2023-04-22T03:34:03.986Z,20.96
2023-04-22T03:36:30.456Z,21.61
2023-04-22T03:38:56.936Z,22.22
2023-04-22T03:41:23.416Z,21.33
2023-04-22T03:43:49.901Z,22.12
2023-04-22T03:46:16.752Z,22.30
2023-04-22T03:48:43.264Z,22.07
2023-04-22T03:51:09.871Z,22.43
2023-04-22T03:53:36.334Z,22.73
2023-04-22T03:56:02.879Z,21.99
2023-04-22T03:58:29.376Z,22.34
2023-04-22T04:00:55.880Z,22.70
2023-04-22T04:03:22.528Z,22.90
2023-04-22T04:05:49.264Z,22.23
2023-04-22T04:08:15.893Z,22.48
2023-04-22T04:10:42.524Z,22.51
2023-04-22T04:13:09.023Z,22.65
2023-04-22T04:15:36.854Z,22.47
2023-04-22T04:18:03.496Z,23.09
2023-04-22T04:20:30.246Z,22.83
2023-04-22T04:22:56.708Z,22.37
2023-04-22T04:25:23.511Z,22.47
2023-04-22T04:27:50.019Z,22.96
2023-04-22T04:30:16.490Z,22.76
2023-04-22T04:32:43.161Z,22.88
2023-04-22T04:35:09.721Z,22.79
2023-04-22T04:37:36.185Z,23.25
2023-04-22T04:40:02.881Z,22.90
2023-04-22T04:42:29.368Z,23.23
2023-04-22T04:44:55.827Z,23.84
2023-04-22T04:47:22.329Z,24.03
2023-04-22T04:49:48.817Z,23.53
2023-04-22T04:52:15.284Z,23.97
2023-04-22T04:54:41.747Z,24.31
2023-04-22T04:57:08.239Z,24.00
2023-04-22T04:59:34.686Z,23.52
2023-04-22T05:02:01.263Z,23.37
2023-04-22T05:04:27.980Z,24.11
2023-04-22T05:06:54.790Z,22.97
2023-04-22T05:09:21.252Z,23.23
2023-04-22T05:11:47.725Z,23.15
2023-04-22T05:14:14.184Z,22.59
2023-04-22T05:16:41.013Z,22.29
2023-04-22T05:19:07.526Z,21.63
2023-04-22T05:21:34.044Z,21.30
2023-04-22T05:24:00.520Z,21.24
2023-04-22T05:26:29.425Z,21.16
2023-04-22T05:28:55.910Z,21.23
2023-04-22T05:31:22.476Z,20.58
2023-04-22T05:33:49.016Z,21.17
2023-04-22T05:36:15.592Z,22.20
2023-04-22T05:38:42.092Z,22.27
2023-04-22T05:41:08.560Z,22.45
2023-04-22T05:43:35.046Z,22.93
2023-04-22T05:46:01.604Z,22.64
2023-04-22T05:48:28.206Z,22.39
2023-04-22T05:50:54.689Z,21.99
2023-04-22T05:53:21.273Z,22.29
2023-04-22T05:55:47.988Z,24.22
2023-04-22T05:58:14.476Z,24.13
2023-04-22T06:00:41.131Z,23.72
2023-04-22T06:03:07.810Z,23.26
2023-04-22T06:05:34.679Z,22.55
2023-04-22T06:08:01.169Z,22.71
2023-04-22T06:10:27.686Z,22.82
2023-04-22T06:12:54.144Z,22.73
2023-04-22T06:15:20.733Z,21.86
2023-04-22T06:17:48.686Z,21.88
2023-04-22T06:20:15.226Z,22.03
2023-04-22T06:22:41.753Z,23.18
2023-04-22T06:25:09.033Z,25.46
2023-04-22T06:27:35.562Z,25.64
2023-04-22T06:30:02.060Z,26.23
2023-04-22T06:32:28.562Z,27.14
2023-04-22T06:34:55.058Z,26.77
2023-04-22T06:37:21.567Z,26.96
2023-04-22T06:39:48.035Z,27.73
2023-04-22T06:42:14.525Z,26.35
2023-04-22T06:44:41.039Z,26.19
2023-04-22T06:47:07.552Z,25.85
2023-04-22T06:49:34.055Z,25.75
2023-04-22T06:52:00.528Z,25.41
2023-04-22T06:54:27.024Z,26.04
2023-04-22T06:56:54.628Z,26.24
2023-04-22T06:59:21.112Z,26.04
2023-04-22T07:01:47.629Z,26.36
2023-04-22T07:04:14.190Z,26.82
2023-04-22T07:06:40.876Z,26.76
2023-04-22T07:09:07.614Z,27.58
2023-04-22T07:11:34.143Z,27.98
2023-04-22T07:14:00.649Z,27.12
2023-04-22T07:16:27.327Z,26.99
2023-04-22T07:18:54.010Z,26.50
2023-04-22T07:21:20.620Z,26.55
2023-04-22T07:23:47.093Z,27.03
2023-04-22T07:26:13.634Z,26.44
2023-04-22T07:28:40.210Z,26.70
2023-04-22T07:31:06.678Z,27.20
2023-04-22T07:33:33.156Z,27.08
2023-04-22T07:35:59.868Z,26.65
2023-04-22T07:38:26.449Z,26.08
2023-04-22T07:40:52.940Z,26.82
2023-04-22T07:43:19.402Z,26.95
2023-04-22T07:45:45.893Z,26.47
2023-04-22T07:48:12.391Z,26.65
2023-04-22T07:50:39.481Z,26.74
2023-04-22T07:53:06.069Z,26.79
2023-04-22T07:55:32.694Z,26.89
2023-04-22T07:57:59.334Z,27.61
2023-04-22T08:00:25.847Z,29.59
2023-04-22T08:02:53.851Z,28.77
2023-04-22T08:05:20.561Z,27.32
2023-04-22T08:07:47.110Z,29.26
2023-04-22T08:10:13.645Z,28.10
2023-04-22T08:12:40.208Z,27.61
2023-04-22T08:15:07.427Z,28.72
2023-04-22T08:17:34.136Z,27.77
2023-04-22T08:20:00.740Z,26.82
2023-04-22T08:22:27.248Z,26.73
2023-04-22T08:24:53.761Z,27.32
2023-04-22T08:27:21.949Z,26.21
2023-04-22T08:29:48.450Z,22.81
2023-04-22T08:32:15.461Z,21.58
2023-04-22T08:34:41.929Z,22.88
2023-04-22T08:37:09.644Z,23.17
2023-04-22T08:39:36.250Z,22.76
2023-04-22T08:42:03.011Z,22.22
2023-04-22T08:44:30.063Z,20.23
2023-04-22T08:46:58.660Z,18.17
2023-04-22T08:49:28.379Z,18.28
2023-04-22T08:51:55.042Z,18.98
2023-04-22T08:54:25.682Z,19.47
2023-04-22T08:56:53.456Z,19.73
2023-04-22T08:59:22.684Z,22.81
2023-04-22T09:01:53.024Z,20.94
2023-04-22T09:04:19.853Z,21.03
2023-04-22T09:06:46.530Z,23.29
2023-04-22T09:09:13.728Z,22.35
2023-04-22T09:11:40.320Z,20.07
2023-04-22T09:14:06.798Z,20.26
2023-04-22T09:16:34.171Z,20.48
2023-04-22T09:19:00.753Z,20.34
2023-04-22T09:21:27.861Z,20.52
2023-04-22T09:23:56.237Z,20.34
2023-04-22T09:26:25.457Z,20.51
2023-04-22T09:28:54.211Z,20.33
2023-04-22T09:31:22.141Z,20.10
2023-04-22T09:33:55.365Z,19.63
2023-04-22T09:36:23.540Z,18.84
2023-04-22T09:38:58.067Z,18.57
2023-04-22T09:41:32.567Z,15.84
2023-04-22T09:44:01.056Z,15.33
2023-04-22T09:46:30.030Z,15.61
2023-04-22T09:48:57.948Z,16.04
2023-04-22T09:51:25.719Z,17.69
2023-04-22T09:54:03.342Z,18.71
2023-04-22T09:56:50.818Z,19.70
2023-04-22T09:59:22.821Z,19.77
2023-04-22T10:01:53.342Z,20.16
2023-04-22T10:04:20.051Z,20.01
2023-04-22T10:06:47.886Z,20.04
2023-04-22T10:09:18.009Z,20.58
2023-04-22T10:11:44.696Z,18.99
2023-04-22T10:14:11.332Z,18.64
2023-04-22T10:16:40.224Z,19.16
2023-04-22T10:19:10.379Z,20.18
2023-04-22T10:21:40.625Z,19.09
2023-04-22T10:24:07.385Z,19.62
2023-04-22T10:26:49.773Z,20.31
2023-04-22T10:29:19.643Z,19.66
2023-04-22T10:31:55.977Z,21.13
2023-04-22T10:34:22.713Z,21.28
2023-04-22T10:37:00.953Z,20.29
2023-04-22T10:39:29.150Z,19.43
2023-04-22T10:42:04.483Z,19.53
2023-04-22T10:44:51.777Z,18.42
2023-04-22T10:47:35.823Z,19.02
2023-04-22T10:50:31.424Z,18.41
2023-04-22T10:53:00.144Z,19.37
2023-04-22T10:55:50.576Z,20.88
2023-04-22T10:58:22.904Z,21.30
2023-04-22T11:00:54.417Z,20.79
2023-04-22T11:03:27.386Z,21.19
2023-04-22T11:06:18.267Z,20.57
2023-04-22T11:08:50.078Z,20.78
2023-04-22T11:11:18.335Z,28.82
2023-04-22T11:13:46.782Z,25.86
2023-04-22T11:16:13.498Z,20.16
2023-04-22T11:18:40.184Z,22.19
2023-04-22T11:21:06.744Z,22.30
2023-04-22T11:23:33.313Z,22.30
2023-04-22T11:26:02.948Z,22.30
2023-04-22T11:28:30.138Z,23.29
2023-04-22T11:31:08.774Z,23.81
2023-04-22T11:33:36.535Z,24.03
2023-04-22T11:36:03.079Z,23.89
2023-04-22T11:38:29.659Z,24.27
2023-04-22T11:40:57.157Z,25.14
2023-04-22T11:43:23.993Z,24.16
2023-04-22T11:45:50.510Z,24.37
2023-04-22T11:51:16.240Z,23.68
2023-04-22T12:04:46.965Z,18.17
2023-04-22T12:07:17.711Z,17.99
2023-04-22T12:09:45.694Z,16.73
2023-04-22T12:12:14.613Z,15.34
2023-04-22T12:14:51.270Z,13.62
2023-04-22T12:17:34.702Z,17.01
2023-04-22T12:20:04.405Z,23.57
2023-04-22T12:22:32.210Z,26.28
2023-04-22T12:25:00.062Z,27.41
2023-04-22T12:27:28.436Z,27.05
2023-04-22T12:30:00.825Z,24.96
2023-04-22T12:32:31.211Z,24.10
2023-04-22T12:35:03.023Z,23.56
2023-04-22T12:37:30.569Z,23.81
2023-04-22T12:39:57.865Z,23.03
2023-04-22T12:53:33.580Z,21.65
2023-04-22T12:56:00.687Z,23.21
2023-04-22T12:58:27.535Z,22.07
2023-04-22T13:00:54.350Z,19.21
2023-04-22T13:03:21.688Z,16.26
2023-04-22T13:05:49.211Z,14.74
2023-04-22T13:19:15.946Z,11.66
2023-04-22T13:21:43.846Z,9.11
2023-04-22T13:24:11.438Z,7.09
2023-04-22T13:26:38.668Z,5.74
2023-04-22T13:29:06.294Z,5.51
2023-04-22T13:31:33.570Z,5.59
2023-04-22T13:34:00.560Z,5.74
2023-04-22T13:36:27.837Z,5.88
2023-04-22T13:38:55.055Z,6.04
2023-04-22T13:41:22.197Z,6.51
2023-04-22T13:43:49.057Z,5.83
2023-04-22T13:46:16.013Z,16.19
2023-04-22T13:48:42.901Z,35.90
2023-04-22T13:51:09.809Z,10.41
2023-04-22T13:53:36.933Z,7.69
2023-04-22T13:56:05.243Z,7.29
2023-04-22T13:58:32.403Z,6.05
2023-04-22T14:00:59.225Z,5.50
2023-04-22T14:03:26.666Z,8.02
2023-04-22T14:05:53.838Z,8.90
2023-04-22T14:08:20.862Z,7.74
2023-04-22T14:10:48.254Z,6.42
2023-04-22T14:13:15.466Z,6.50
2023-04-22T14:15:44.345Z,5.51
2023-04-22T14:18:17.639Z,5.61
2023-04-22T14:20:45.303Z,6.18
2023-04-22T14:23:28.662Z,6.08
2023-04-22T14:25:59.995Z,6.08
2023-04-22T14:28:29.884Z,6.00
2023-04-22T14:30:58.021Z,5.83
2023-04-22T14:33:26.350Z,6.11
2023-04-22T14:35:55.328Z,5.99
2023-04-22T14:38:23.497Z,6.68
2023-04-22T14:40:51.264Z,6.69
2023-04-22T14:43:22.998Z,6.31
2023-04-22T14:45:50.610Z,6.09
2023-04-22T14:48:20.465Z,5.09
2023-04-22T14:56:12.470Z,20.53
2023-04-22T14:58:44.373Z,24.42
2023-04-22T15:01:13.516Z,26.87
2023-04-22T15:03:42.007Z,26.70
2023-04-22T15:06:10.094Z,26.76
2023-04-22T15:08:38.951Z,26.96
2023-04-22T15:11:06.819Z,25.91
2023-04-22T15:13:37.035Z,26.33
2023-04-22T15:16:04.431Z,25.22
2023-04-22T15:18:31.877Z,24.03
2023-04-22T15:21:03.303Z,22.67
2023-04-22T15:23:31.163Z,19.63
2023-04-22T15:28:40.732Z,18.07
2023-04-22T15:31:10.319Z,16.76
2023-04-22T15:33:37.707Z,15.50
2023-04-22T15:38:47.889Z,9.66
2023-04-22T15:41:15.522Z,9.23
2023-04-22T15:43:44.520Z,8.08
2023-04-22T15:46:12.671Z,6.98
2023-04-22T15:48:40.674Z,6.25
2023-04-22T15:51:08.626Z,5.92
2023-04-22T15:53:37.958Z,5.76
2023-04-22T15:56:06.605Z,6.70
2023-04-22T15:58:44.290Z,10.52
2023-04-22T16:01:19.224Z,10.07
2023-04-22T16:06:32.748Z,6.89
2023-04-22T16:09:09.660Z,10.61
2023-04-22T16:14:22.085Z,15.93
2023-04-22T16:16:53.372Z,18.60
2023-04-22T16:19:30.821Z,19.28
2023-04-22T16:22:01.615Z,19.30
2023-04-22T16:24:32.099Z,19.03
2023-04-22T16:26:59.596Z,19.05
2023-04-22T16:29:26.753Z,19.17
2023-04-22T16:31:54.185Z,18.73
2023-04-22T16:34:21.328Z,21.91
2023-04-22T16:36:48.586Z,19.92
2023-04-22T16:39:15.524Z,18.61
2023-04-22T16:41:42.143Z,18.50
2023-04-22T16:44:09.377Z,17.71
2023-04-22T16:46:35.980Z,17.61
2023-04-22T16:49:02.572Z,17.70
2023-04-22T16:51:29.166Z,16.23
2023-04-22T16:53:55.783Z,16.92
2023-04-22T16:56:22.315Z,18.13
2023-04-22T16:58:48.855Z,18.90
2023-04-22T17:01:15.713Z,19.58
2023-04-22T17:03:42.672Z,20.26
2023-04-22T17:06:09.366Z,20.24
2023-04-22T17:08:35.857Z,21.11
2023-04-22T17:11:02.360Z,21.21
2023-04-22T17:13:28.999Z,20.52
2023-04-22T17:15:55.667Z,22.28
2023-04-22T17:18:22.240Z,20.61
2023-04-22T17:20:48.812Z,20.43
2023-04-22T17:23:15.577Z,21.12
2023-04-22T17:25:42.303Z,22.07
2023-04-22T17:28:09.010Z,21.86
2023-04-22T17:30:35.756Z,21.45
2023-04-22T17:33:02.426Z,23.45
2023-04-22T17:35:29.198Z,22.11
2023-04-22T17:37:55.727Z,21.75
2023-04-22T17:40:22.511Z,20.50
2023-04-22T17:42:49.176Z,21.48
2023-04-22T17:45:15.845Z,20.70
2023-04-22T17:47:42.451Z,19.80
2023-04-22T17:50:11.602Z,19.40
2023-04-22T17:52:38.261Z,17.56
2023-04-22T17:55:05.244Z,14.13
2023-04-22T17:57:31.823Z,18.07
2023-04-22T17:59:58.325Z,17.40
2023-04-22T18:02:25.207Z,12.78
2023-04-22T18:04:51.895Z,11.33
2023-04-22T18:07:18.372Z,10.74
2023-04-22T18:09:44.856Z,9.64
2023-04-22T18:12:11.460Z,10.77
2023-04-22T18:14:38.034Z,10.90
2023-04-22T18:17:04.581Z,7.63
2023-04-22T18:19:31.310Z,7.31
2023-04-22T18:22:00.362Z,8.06
2023-04-22T18:24:27.768Z,8.71
2023-04-22T18:26:54.441Z,8.94
2023-04-22T18:29:20.959Z,8.92
2023-04-22T18:31:47.651Z,11.54
2023-04-22T18:34:15.016Z,12.11
2023-04-22T18:36:41.692Z,12.55
2023-04-22T18:39:08.217Z,12.64
2023-04-22T18:41:34.793Z,12.80
2023-04-22T18:44:01.277Z,13.23
2023-04-22T18:46:28.011Z,12.94
2023-04-22T18:48:54.552Z,12.05
2023-04-22T18:51:21.134Z,11.86
2023-04-22T18:53:47.623Z,12.07
2023-04-22T18:56:14.433Z,11.14
2023-04-22T18:58:40.909Z,11.45
2023-04-22T19:01:07.518Z,11.87
2023-04-22T19:03:34.107Z,11.49
2023-04-22T19:06:00.655Z,10.64
2023-04-22T19:08:27.161Z,10.96
2023-04-22T19:10:54.245Z,10.73
2023-04-22T19:13:29.051Z,11.52
2023-04-22T19:15:56.488Z,11.08
2023-04-22T19:18:23.123Z,10.92
2023-04-22T19:20:49.783Z,10.89
2023-04-22T19:23:16.326Z,10.56
2023-04-22T19:25:42.961Z,10.77
2023-04-22T19:28:09.572Z,10.11
2023-04-22T19:30:36.156Z,10.47
2023-04-22T19:33:02.746Z,11.27
2023-04-22T19:35:29.430Z,10.64
2023-04-22T19:37:55.937Z,16.26
2023-04-22T19:40:22.597Z,12.64
2023-04-22T19:42:49.322Z,11.64
2023-04-22T19:45:15.839Z,10.92
2023-04-22T19:47:42.530Z,11.39
2023-04-22T19:50:09.344Z,11.99
2023-04-22T19:52:36.388Z,12.60
2023-04-22T19:55:07.547Z,13.68
2023-04-22T19:57:38.819Z,14.53
2023-04-22T20:00:06.346Z,14.36
2023-04-22T20:02:36.288Z,12.36
2023-04-22T20:05:03.703Z,12.62
2023-04-22T20:07:31.958Z,12.84
2023-04-22T20:09:59.937Z,12.98
2023-04-22T20:12:27.137Z,12.12
2023-04-22T20:14:53.994Z,12.36
2023-04-22T20:17:20.744Z,13.39
2023-04-22T20:19:47.371Z,12.88
2023-04-22T20:22:17.170Z,11.78
2023-04-22T20:24:44.730Z,12.63
2023-04-22T20:27:11.458Z,11.33
2023-04-22T20:29:39.181Z,10.08
2023-04-22T20:32:06.317Z,10.12
2023-04-22T20:34:33.358Z,10.56
2023-04-22T20:37:04.664Z,10.50
2023-04-22T20:39:31.441Z,9.51
2023-04-22T20:41:58.194Z,10.43
2023-04-22T20:44:24.796Z,9.90
2023-04-22T20:46:51.413Z,10.14
2023-04-22T20:49:18.015Z,10.38
2023-04-22T20:51:44.530Z,10.36
2023-04-22T20:54:21.634Z,9.82
2023-04-22T20:56:55.310Z,8.39
2023-04-22T20:59:21.851Z,8.28
2023-04-22T21:01:50.029Z,7.70
2023-04-22T21:04:17.659Z,8.16
2023-04-22T21:06:45.061Z,7.13
2023-04-22T21:09:12.875Z,7.26
2023-04-22T21:11:39.601Z,7.71
2023-04-22T21:14:06.500Z,6.06
2023-04-22T21:16:39.925Z,6.21
2023-04-22T21:19:07.316Z,6.49
2023-04-22T21:21:34.633Z,7.16
2023-04-22T21:24:02.316Z,7.48
2023-04-22T21:26:29.616Z,7.11
2023-04-22T21:28:57.243Z,7.12
2023-04-22T21:31:24.017Z,7.09
2023-04-22T21:33:50.805Z,7.17
2023-04-22T21:36:17.837Z,7.05
2023-04-22T21:38:44.865Z,7.09
2023-04-22T21:41:11.772Z,7.26
2023-04-22T21:43:39.030Z,7.25
2023-04-22T21:46:05.870Z,6.92
2023-04-22T21:48:32.418Z,6.78
2023-04-22T21:50:58.998Z,7.42
2023-04-22T21:53:25.701Z,7.17
2023-04-22T21:55:52.273Z,8.24
2023-04-22T21:58:18.794Z,9.00
2023-04-22T22:00:45.291Z,10.57
2023-04-22T22:03:11.989Z,9.88
2023-04-22T22:05:41.187Z,9.67
2023-04-22T22:08:07.758Z,9.02
2023-04-22T22:10:34.272Z,8.79
2023-04-22T22:13:00.836Z,8.39
2023-04-22T22:15:27.398Z,7.11
2023-04-22T22:17:53.988Z,6.38
2023-04-22T22:20:20.712Z,6.41
2023-04-22T22:22:47.730Z,6.97
2023-04-22T22:25:16.108Z,6.22
2023-04-22T22:27:44.153Z,6.07
2023-04-22T22:30:11.419Z,5.85
2023-04-22T22:32:38.048Z,5.79
2023-04-22T22:35:04.932Z,5.99
2023-04-22T22:37:31.548Z,5.73
2023-04-22T22:39:58.351Z,5.91
2023-04-22T22:42:25.406Z,5.69
2023-04-22T22:44:52.038Z,5.51
2023-04-22T22:47:19.309Z,6.43
2023-04-22T22:49:45.878Z,6.48
2023-04-22T22:52:13.009Z,6.84
2023-04-22T22:54:40.333Z,6.53
2023-04-22T22:57:07.548Z,6.52
2023-04-22T22:59:35.585Z,6.52
2023-04-22T23:02:02.882Z,7.52
2023-04-22T23:04:30.298Z,6.98
2023-04-22T23:06:57.239Z,6.97
2023-04-22T23:09:23.743Z,6.76
2023-04-22T23:11:52.674Z,6.75
2023-04-22T23:14:19.135Z,6.35
2023-04-22T23:16:47.281Z,6.57
2023-04-22T23:19:15.311Z,6.70
2023-04-22T23:21:41.965Z,6.65
2023-04-22T23:24:13.399Z,6.51
2023-04-22T23:26:40.870Z,6.50
2023-04-22T23:29:08.868Z,6.44
2023-04-22T23:31:36.225Z,5.93
2023-04-22T23:34:05.148Z,5.84
2023-04-22T23:36:34.804Z,5.69
2023-04-22T23:39:01.346Z,5.50
2023-04-22T23:41:27.944Z,4.80
2023-04-22T23:43:54.482Z,4.87
2023-04-22T23:46:21.310Z,4.78
2023-04-22T23:48:48.096Z,4.88
2023-04-22T23:51:14.814Z,4.54
2023-04-22T23:53:41.794Z,4.57
2023-04-22T23:56:08.951Z,4.37
2023-04-22T23:58:36.123Z,4.41
